Airfield :
LOGIN :

Register | Disclaimer

   EN    FR    IT 

 










Legend :    VFR   Marginal VFR   IFR   Intensive IFR   Very Intensive IFR
Visi :
Ceiling :
>= 8 km
>= 3000ft
5 to 8 km
1000 to 3000 ft
1500m to 5 km
500 to 1000 ft
800 to 1500m
200 to 500 ft
< 800m
< 200 ft
Symbols :   Thunderstorms  Fog  Heavy snow  Heavy precipitations  Wind > 20 kt
SIGMETs :     Misc.  Thunderstorms  Icing  Turbulence  Mountain Waves  Volcanic Ashes







- Airport Elevation : 127 ft
- IATA code : JTR


LGSR - Santorini

CURRENT METAR :
  • 222320Z 36005KT 9999 FEW025 13/07 Q1021

EXPIRED METARs :
  • 222250Z 36006KT 9999 FEW025 13/07 Q1021
  • 222220Z 36005KT 9999 FEW025 14/08 Q1021
  • 222150Z 36004KT 9999 FEW025 14/07 Q1021 RMK SCT080 BKN180 BLU
  • 222120Z 36004KT 9999 FEW025 15/07 Q1020
  • 222050Z 36006KT 9999 FEW025 16/08 Q1020 RMK SCT080 BKN180 BLU

TAF TAF LGSR
Valid from the 23 at 00:00 until the 24 at 00:00 UTC


222300Z 2300/2324 01008KT 9999 FEW025 SCT030
BECMG 2304/2306 06010KT
BECMG 2313/2315 12015KT
TEMPO 2318/2324 12015G25KT
No reported NOTAMs for that airfield.



MET'MAP, your aeronautical weather chart ! - Copyright ORBIFLY December 2007 - Disclaimer

ORBIFLY MET'MAP TEAM :

Programming & Development : Alexandra Zaïnal
Concept & Development : Baudouin d'Aumeries
Co-Development & Prog : Marc-Olivier Méhu
Technical & hardware support : Manuel Goepfert

Contact : metmap@orbifly.com




SOURCES & CREDITS :

   NOAA